Lapis Arrow — C6VH5 — position and weather

sailwx.info

Track history (hours):
 
Tides and Currents Weather Stations Pressure Air Temp Water Temp Dewpoint Dewpoint Depression Visibility Wind Speed Wind Dir Waves Ship Positions

Lapis Arrow

Last reported at 2017-Aug-18 22:41 UTC. Time now 2017-Aug-18 23:57 UTC.
Position N 42°26' E 004°10'.

Length 176 m; draft 7.3 m.

Type: Cargo ship. MMSI: 308800800.

Date/timePositionNaut miles runAvg speedWind from/ knotsBaromVisibWave heightAir tempDewpointWater temp
2017-Aug-18 22:41N 42°26' E 004°10'315.9
2017-Aug-18 22:30N 42°28' E 004°12'815.7
2017-Aug-18 22:00N 42°33' E 004°20'815.6
2017-Aug-18 21:30N 42°39' E 004°27'815.5
2017-Aug-18 21:00N 42°45' E 004°34'815.5
2017-Aug-18 20:31N 42°50' E 004°41'815.0
2017-Aug-18 20:01N 42°56' E 004°48'714.7
2017-Aug-18 19:30N 43°01' E 004°55'714.4
2017-Aug-18 19:01N 43°07' E 005°00'714.7
2017-Aug-18 18:30N 43°15' E 005°00'714.7
2017-Aug-18 18:00N 43°22' E 004°58'4 9.0
2017-Aug-18 17:30N 43°24' E 004°52'1 2.0
2017-Aug-18 16:58N 43°24' E 004°51'0 0.0
2017-Aug-18 16:26N 43°24' E 004°51'0 0.0
2017-Aug-18 15:54N 43°24' E 004°51'0 0.0
2017-Aug-18 15:14N 43°24' E 004°51'0 0.0
2017-Aug-18 14:51N 43°24' E 004°51'0 0.0
2017-Aug-18 14:27N 43°24' E 004°51'0 0.0
2017-Aug-18 13:25N 43°24' E 004°51'0 0.0
2017-Aug-18 13:00N 43°24' E 004°51'0 0.0
2017-Aug-18 12:27N 43°24' E 004°51'0 0.0
2017-Aug-18 11:53N 43°24' E 004°51'0 0.0
2017-Aug-18 11:19N 43°24' E 004°51'0 0.0
2017-Aug-18 10:58N 43°24' E 004°51'0 0.0
2017-Aug-18 10:28N 43°24' E 004°51'0 0.0
2017-Aug-18 09:55N 43°24' E 004°51'0 0.0
2017-Aug-18 09:24N 43°24' E 004°51'0 0.0
2017-Aug-18 08:53N 43°24' E 004°51'0 0.0
2017-Aug-18 08:29N 43°24' E 004°51'0 0.0
2017-Aug-18 07:55N 43°24' E 004°51'0 0.0
2017-Aug-18 07:29N 43°24' E 004°51'0 0.0
2017-Aug-18 06:58N 43°24' E 004°51'0 0.3
2017-Aug-18 06:30N 43°24' E 004°51'4 7.7
2017-Aug-18 06:00N 43°24' E 004°56'510.8
2017-Aug-18 05:30N 43°19' E 004°59'510.8
2017-Aug-18 05:01N 43°14' E 005°02'815.0
2017-Aug-18 04:31N 43°07' E 005°07'714.7
2017-Aug-18 04:01N 43°04' E 005°16'815.3
2017-Aug-18 03:30N 43°02' E 005°26'815.5
2017-Aug-18 03:01N 42°59' E 005°36'815.4
2017-Aug-18 02:30N 42°57' E 005°46'815.4
2017-Aug-18 02:00N 42°54' E 005°56'815.4
2017-Aug-18 01:30N 42°52' E 006°06'915.6
2017-Aug-18 00:55N 42°51' E 006°19'615.9
2017-Aug-18 00:30N 42°52' E 006°28'815.8
2017-Aug-18 00:00N 42°53' E 006°38'1015.5
2017-Aug-17 23:21N 42°54' E 006°52'715.1
2017-Aug-17 22:53N 42°56' E 007°01'815.1
2017-Aug-17 22:22N 42°58' E 007°12'515.1
2017-Aug-17 22:01N 42°59' E 007°19'714.7
2017-Aug-17 21:30N 42°60' E 007°29'714.8
2017-Aug-17 21:00N 43°01' E 007°39'815.1
2017-Aug-17 20:31N 43°02' E 007°49'815.0
2017-Aug-17 20:00N 43°04' E 007°59'714.9
2017-Aug-17 19:30N 43°05' E 008°09'714.7
2017-Aug-17 19:01N 43°06' E 008°19'914.3
2017-Aug-17 18:25N 43°08' E 008°31'614.4
2017-Aug-17 18:00N 43°08' E 008°38'714.6
2017-Aug-17 17:31N 43°10' E 008°48'714.7
2017-Aug-17 17:00N 43°11' E 008°58'714.5
2017-Aug-17 16:30N 43°12' E 009°08'714.7
2017-Aug-17 16:01N 43°13' E 009°18'714.9
2017-Aug-17 15:31N 43°15' E 009°28'815.1
2017-Aug-17 15:01N 43°16' E 009°38'815.1
2017-Aug-17 14:31N 43°17' E 009°49'917.0
2017-Aug-17 14:00N 43°19' E 009°60'918.4
2017-Aug-17 13:31N 43°26' E 010°08'815.5
2017-Aug-17 13:00N 43°32' E 010°16'3 6.9
2017-Aug-17 12:30N 43°34' E 010°19'0 0.7
2017-Aug-17 11:53N 43°35' E 010°19'0 0.0
2017-Aug-17 11:30N 43°35' E 010°19'0 0.0
2017-Aug-17 10:57N 43°35' E 010°19'0 0.0
2017-Aug-17 10:27N 43°35' E 010°19'0 0.0
2017-Aug-17 10:00N 43°35' E 010°19'0 0.0
2017-Aug-17 09:30N 43°35' E 010°19'0 0.0
2017-Aug-17 09:00N 43°35' E 010°19'0 0.0
2017-Aug-17 08:30N 43°35' E 010°19'0 0.0
2017-Aug-17 07:54N 43°35' E 010°19'0 0.0
2017-Aug-17 07:30N 43°35' E 010°19'0 0.0
2017-Aug-17 07:00N 43°35' E 010°19'0 0.0
2017-Aug-17 06:26N 43°35' E 010°19'0 0.0
2017-Aug-17 05:55N 43°35' E 010°19'0 0.0
2017-Aug-17 05:29N 43°35' E 010°19'0 0.0
2017-Aug-17 04:58N 43°35' E 010°19'0 0.0
2017-Aug-17 04:27N 43°35' E 010°19'0 0.0
2017-Aug-17 03:57N 43°35' E 010°19'0 0.0
2017-Aug-17 03:24N 43°35' E 010°19'0 0.0
2017-Aug-17 02:58N 43°35' E 010°19'0 0.0
2017-Aug-17 02:29N 43°35' E 010°19'0 0.0
2017-Aug-17 01:54N 43°35' E 010°19'0 0.0
2017-Aug-17 01:22N 43°35' E 010°19'0 0.0
2017-Aug-17 00:59N 43°35' E 010°19'0 0.0
2017-Aug-17 00:27N 43°35' E 010°19'0 0.6
2017-Aug-17 00:00N 43°34' E 010°19'2 4.8
2017-Aug-16 23:30N 43°32' E 010°17'2 3.2
2017-Aug-16 23:00N 43°31' E 010°15'1 2.6
2017-Aug-16 22:30N 43°30' E 010°14'4 7.1
2017-Aug-16 22:00N 43°27' E 010°15'0 0.3
2017-Aug-16 21:30N 43°27' E 010°15'0 0.3
2017-Aug-16 21:00N 43°27' E 010°15'0 0.4
2017-Aug-16 20:30N 43°27' E 010°14'0 0.4
2017-Aug-16 20:00N 43°28' E 010°14'0 0.3
2017-Aug-16 19:30N 43°27' E 010°14'4 7.5
2017-Aug-16 19:00N 43°24' E 010°12'714.7
2017-Aug-16 18:30N 43°17' E 010°09'815.0
2017-Aug-16 18:00N 43°10' E 010°06'714.7
2017-Aug-16 17:30N 43°03' E 010°03'814.4
2017-Aug-16 16:57N 42°55' E 009°59'714.1
2017-Aug-16 16:27N 42°48' E 009°60'614.1
2017-Aug-16 16:00N 42°43' E 010°04'1314.9
2017-Aug-16 15:10N 42°35' E 010°16'215.0
2017-Aug-16 15:00N 42°33' E 010°19'2115.2
2017-Aug-16 13:36N 42°20' E 010°41'114.9
2017-Aug-16 13:30N 42°19' E 010°43'714.9
2017-Aug-16 13:00N 42°14' E 010°51'714.9
2017-Aug-16 12:30N 42°10' E 010°58'814.4
2017-Aug-16 11:57N 42°07' E 011°09'77 5.6
2017-Aug-15 22:07N 41°13' E 012°22'214.8
2017-Aug-15 22:00N 41°11' E 012°24'1014.9
2017-Aug-15 21:19N 41°03' E 012°32'515.0
2017-Aug-15 21:00N 40°59' E 012°35'1514.7
2017-Aug-15 20:01N 40°49' E 012°48'015.4
2017-Aug-15 20:00N 40°48' E 012°48'815.1
2017-Aug-15 19:31N 40°45' E 012°57'714.9
2017-Aug-15 19:01N 40°42' E 013°06'714.7
2017-Aug-15 18:30N 40°38' E 013°14'714.7
2017-Aug-15 18:00N 40°35' E 013°23'714.8
2017-Aug-15 17:30N 40°31' E 013°32'714.7
2017-Aug-15 17:01N 40°29' E 013°41'2214.7
2017-Aug-15 15:30N 40°27' E 014°10'814.5
2017-Aug-15 14:56N 40°29' E 014°21'614.3
2017-Aug-15 14:29N 40°30' E 014°29'16 6.8
2017-Aug-15 12:12N 40°40' E 014°44'0 0.0
2017-Aug-15 11:57N 40°40' E 014°44'8 1.1
2017-Aug-15 04:41N 40°32' E 014°44'315.3
2017-Aug-15 04:30N 40°29' E 014°44'3515.2
2017-Aug-15 02:10N 39°55' E 014°53'2815.8
2017-Aug-15 00:25N 39°29' E 015°07'3215.6
2017-Aug-14 22:22N 38°59' E 015°22'615.5
2017-Aug-14 22:00N 38°54' E 015°24'815.5
2017-Aug-14 21:30N 38°47' E 015°28'815.5
2017-Aug-14 21:00N 38°40' E 015°31'815.7
2017-Aug-14 20:30N 38°32' E 015°35'815.9
2017-Aug-14 20:00N 38°25' E 015°39'815.7
2017-Aug-14 19:30N 38°18' E 015°43'612.7
2017-Aug-14 19:01N 38°13' E 015°37'713.5
2017-Aug-14 18:30N 38°06' E 015°36'815.4
2017-Aug-14 18:00N 37°59' E 015°37'815.5
2017-Aug-14 17:30N 37°52' E 015°41'714.2
2017-Aug-14 17:00N 37°47' E 015°47'715.0
2017-Aug-14 16:30N 37°45' E 015°56'814.7
2017-Aug-14 16:00N 37°43' E 016°06'714.4
2017-Aug-14 15:30N 37°41' E 016°14'35313.2
2017-Aug-13 12:51N 36°48' E 023°33'4115.3
2017-Aug-13 10:12N 37°22' E 023°59'615.0
2017-Aug-13 09:48N 37°27' E 024°04'815.2
2017-Aug-13 09:15N 37°34' E 024°09'1114.6
2017-Aug-13 08:31N 37°43' E 024°16'018.2
2017-Aug-13 08:30N 37°43' E 024°17'14316.2
2017-Aug-12 23:43N 39°49' E 025°44'2416.0
2017-Aug-12 22:11N 40°02' E 026°11'121 4.5
2017-Aug-11 19:27N 40°27' E 028°47'613.9
2017-Aug-11 19:01N 40°32' E 028°42'1315.7
2017-Aug-11 18:09N 40°41' E 028°55'  
2017-Aug-09 04:54N 37°44' E 024°18'  
Track history (hours):
 
Tides and Currents Weather Stations Pressure Air Temp Water Temp Dewpoint Dewpoint Depression Visibility Wind Speed Wind Dir Waves Ship Positions

Lapis Arrow

Last reported at 2017-Aug-18 22:41 UTC. Time now 2017-Aug-18 23:57 UTC.
Position N 42°26' E 004°10'.

Length 176 m; draft 7.3 m.

Type: Cargo ship. MMSI: 308800800.

Date/timePositionNaut miles runAvg speedWind from/ knotsBaromVisibWave heightAir tempDewpointWater temp
2017-Aug-18 22:41N 42°26' E 004°10'315.9
2017-Aug-18 22:30N 42°28' E 004°12'815.7
2017-Aug-18 22:00N 42°33' E 004°20'815.6
2017-Aug-18 21:30N 42°39' E 004°27'815.5
2017-Aug-18 21:00N 42°45' E 004°34'815.5
2017-Aug-18 20:31N 42°50' E 004°41'815.0
2017-Aug-18 20:01N 42°56' E 004°48'714.7
2017-Aug-18 19:30N 43°01' E 004°55'714.4
2017-Aug-18 19:01N 43°07' E 005°00'714.7
2017-Aug-18 18:30N 43°15' E 005°00'714.7
2017-Aug-18 18:00N 43°22' E 004°58'4 9.0
2017-Aug-18 17:30N 43°24' E 004°52'1 2.0
2017-Aug-18 16:58N 43°24' E 004°51'0 0.0
2017-Aug-18 16:26N 43°24' E 004°51'0 0.0
2017-Aug-18 15:54N 43°24' E 004°51'0 0.0
2017-Aug-18 15:14N 43°24' E 004°51'0 0.0
2017-Aug-18 14:51N 43°24' E 004°51'0 0.0
2017-Aug-18 14:27N 43°24' E 004°51'0 0.0
2017-Aug-18 13:25N 43°24' E 004°51'0 0.0
2017-Aug-18 13:00N 43°24' E 004°51'0 0.0
2017-Aug-18 12:27N 43°24' E 004°51'0 0.0
2017-Aug-18 11:53N 43°24' E 004°51'0 0.0
2017-Aug-18 11:19N 43°24' E 004°51'0 0.0
2017-Aug-18 10:58N 43°24' E 004°51'0 0.0
2017-Aug-18 10:28N 43°24' E 004°51'0 0.0
2017-Aug-18 09:55N 43°24' E 004°51'0 0.0
2017-Aug-18 09:24N 43°24' E 004°51'0 0.0
2017-Aug-18 08:53N 43°24' E 004°51'0 0.0
2017-Aug-18 08:29N 43°24' E 004°51'0 0.0
2017-Aug-18 07:55N 43°24' E 004°51'0 0.0
2017-Aug-18 07:29N 43°24' E 004°51'0 0.0
2017-Aug-18 06:58N 43°24' E 004°51'0 0.3
2017-Aug-18 06:30N 43°24' E 004°51'4 7.7
2017-Aug-18 06:00N 43°24' E 004°56'510.8
2017-Aug-18 05:30N 43°19' E 004°59'510.8
2017-Aug-18 05:01N 43°14' E 005°02'815.0
2017-Aug-18 04:31N 43°07' E 005°07'714.7
2017-Aug-18 04:01N 43°04' E 005°16'815.3
2017-Aug-18 03:30N 43°02' E 005°26'815.5
2017-Aug-18 03:01N 42°59' E 005°36'815.4
2017-Aug-18 02:30N 42°57' E 005°46'815.4
2017-Aug-18 02:00N 42°54' E 005°56'815.4
2017-Aug-18 01:30N 42°52' E 006°06'915.6
2017-Aug-18 00:55N 42°51' E 006°19'615.9
2017-Aug-18 00:30N 42°52' E 006°28'815.8
2017-Aug-18 00:00N 42°53' E 006°38'1015.5
2017-Aug-17 23:21N 42°54' E 006°52'715.1
2017-Aug-17 22:53N 42°56' E 007°01'815.1
2017-Aug-17 22:22N 42°58' E 007°12'515.1
2017-Aug-17 22:01N 42°59' E 007°19'714.7
2017-Aug-17 21:30N 42°60' E 007°29'714.8
2017-Aug-17 21:00N 43°01' E 007°39'815.1
2017-Aug-17 20:31N 43°02' E 007°49'815.0
2017-Aug-17 20:00N 43°04' E 007°59'714.9
2017-Aug-17 19:30N 43°05' E 008°09'714.7
2017-Aug-17 19:01N 43°06' E 008°19'914.3
2017-Aug-17 18:25N 43°08' E 008°31'614.4
2017-Aug-17 18:00N 43°08' E 008°38'714.6
2017-Aug-17 17:31N 43°10' E 008°48'714.7
2017-Aug-17 17:00N 43°11' E 008°58'714.5
2017-Aug-17 16:30N 43°12' E 009°08'714.7
2017-Aug-17 16:01N 43°13' E 009°18'714.9
2017-Aug-17 15:31N 43°15' E 009°28'815.1
2017-Aug-17 15:01N 43°16' E 009°38'815.1
2017-Aug-17 14:31N 43°17' E 009°49'917.0
2017-Aug-17 14:00N 43°19' E 009°60'918.4
2017-Aug-17 13:31N 43°26' E 010°08'815.5
2017-Aug-17 13:00N 43°32' E 010°16'3 6.9
2017-Aug-17 12:30N 43°34' E 010°19'0 0.7
2017-Aug-17 11:53N 43°35' E 010°19'0 0.0
2017-Aug-17 11:30N 43°35' E 010°19'0 0.0
2017-Aug-17 10:57N 43°35' E 010°19'0 0.0
2017-Aug-17 10:27N 43°35' E 010°19'0 0.0
2017-Aug-17 10:00N 43°35' E 010°19'0 0.0
2017-Aug-17 09:30N 43°35' E 010°19'0 0.0
2017-Aug-17 09:00N 43°35' E 010°19'0 0.0
2017-Aug-17 08:30N 43°35' E 010°19'0 0.0
2017-Aug-17 07:54N 43°35' E 010°19'0 0.0
2017-Aug-17 07:30N 43°35' E 010°19'0 0.0
2017-Aug-17 07:00N 43°35' E 010°19'0 0.0
2017-Aug-17 06:26N 43°35' E 010°19'0 0.0
2017-Aug-17 05:55N 43°35' E 010°19'0 0.0
2017-Aug-17 05:29N 43°35' E 010°19'0 0.0
2017-Aug-17 04:58N 43°35' E 010°19'0 0.0
2017-Aug-17 04:27N 43°35' E 010°19'0 0.0
2017-Aug-17 03:57N 43°35' E 010°19'0 0.0
2017-Aug-17 03:24N 43°35' E 010°19'0 0.0
2017-Aug-17 02:58N 43°35' E 010°19'0 0.0
2017-Aug-17 02:29N 43°35' E 010°19'0 0.0
2017-Aug-17 01:54N 43°35' E 010°19'0 0.0
2017-Aug-17 01:22N 43°35' E 010°19'0 0.0
2017-Aug-17 00:59N 43°35' E 010°19'0 0.0
2017-Aug-17 00:27N 43°35' E 010°19'0 0.6
2017-Aug-17 00:00N 43°34' E 010°19'2 4.8
2017-Aug-16 23:30N 43°32' E 010°17'2 3.2
2017-Aug-16 23:00N 43°31' E 010°15'1 2.6
2017-Aug-16 22:30N 43°30' E 010°14'4 7.1
2017-Aug-16 22:00N 43°27' E 010°15'0 0.3
2017-Aug-16 21:30N 43°27' E 010°15'0 0.3
2017-Aug-16 21:00N 43°27' E 010°15'0 0.4
2017-Aug-16 20:30N 43°27' E 010°14'0 0.4
2017-Aug-16 20:00N 43°28' E 010°14'0 0.3
2017-Aug-16 19:30N 43°27' E 010°14'4 7.5
2017-Aug-16 19:00N 43°24' E 010°12'714.7
2017-Aug-16 18:30N 43°17' E 010°09'815.0
2017-Aug-16 18:00N 43°10' E 010°06'714.7
2017-Aug-16 17:30N 43°03' E 010°03'814.4
2017-Aug-16 16:57N 42°55' E 009°59'714.1
2017-Aug-16 16:27N 42°48' E 009°60'614.1
2017-Aug-16 16:00N 42°43' E 010°04'1314.9
2017-Aug-16 15:10N 42°35' E 010°16'215.0
2017-Aug-16 15:00N 42°33' E 010°19'2115.2
2017-Aug-16 13:36N 42°20' E 010°41'114.9
2017-Aug-16 13:30N 42°19' E 010°43'714.9
2017-Aug-16 13:00N 42°14' E 010°51'714.9
2017-Aug-16 12:30N 42°10' E 010°58'814.4
2017-Aug-16 11:57N 42°07' E 011°09'77 5.6
2017-Aug-15 22:07N 41°13' E 012°22'214.8
2017-Aug-15 22:00N 41°11' E 012°24'1014.9
2017-Aug-15 21:19N 41°03' E 012°32'515.0
2017-Aug-15 21:00N 40°59' E 012°35'1514.7
2017-Aug-15 20:01N 40°49' E 012°48'015.4
2017-Aug-15 20:00N 40°48' E 012°48'815.1
2017-Aug-15 19:31N 40°45' E 012°57'714.9
2017-Aug-15 19:01N 40°42' E 013°06'714.7
2017-Aug-15 18:30N 40°38' E 013°14'714.7
2017-Aug-15 18:00N 40°35' E 013°23'714.8
2017-Aug-15 17:30N 40°31' E 013°32'714.7
2017-Aug-15 17:01N 40°29' E 013°41'2214.7
2017-Aug-15 15:30N 40°27' E 014°10'814.5
2017-Aug-15 14:56N 40°29' E 014°21'614.3
2017-Aug-15 14:29N 40°30' E 014°29'16 6.8
2017-Aug-15 12:12N 40°40' E 014°44'0 0.0
2017-Aug-15 11:57N 40°40' E 014°44'8 1.1
2017-Aug-15 04:41N 40°32' E 014°44'315.3
2017-Aug-15 04:30N 40°29' E 014°44'3515.2
2017-Aug-15 02:10N 39°55' E 014°53'2815.8
2017-Aug-15 00:25N 39°29' E 015°07'3215.6
2017-Aug-14 22:22N 38°59' E 015°22'615.5
2017-Aug-14 22:00N 38°54' E 015°24'815.5
2017-Aug-14 21:30N 38°47' E 015°28'815.5
2017-Aug-14 21:00N 38°40' E 015°31'815.7
2017-Aug-14 20:30N 38°32' E 015°35'815.9
2017-Aug-14 20:00N 38°25' E 015°39'815.7
2017-Aug-14 19:30N 38°18' E 015°43'612.7
2017-Aug-14 19:01N 38°13' E 015°37'713.5
2017-Aug-14 18:30N 38°06' E 015°36'815.4
2017-Aug-14 18:00N 37°59' E 015°37'815.5
2017-Aug-14 17:30N 37°52' E 015°41'714.2
2017-Aug-14 17:00N 37°47' E 015°47'715.0
2017-Aug-14 16:30N 37°45' E 015°56'814.7
2017-Aug-14 16:00N 37°43' E 016°06'714.4
2017-Aug-14 15:30N 37°41' E 016°14'35313.2
2017-Aug-13 12:51N 36°48' E 023°33'4115.3
2017-Aug-13 10:12N 37°22' E 023°59'615.0
2017-Aug-13 09:48N 37°27' E 024°04'815.2
2017-Aug-13 09:15N 37°34' E 024°09'1114.6
2017-Aug-13 08:31N 37°43' E 024°16'018.2
2017-Aug-13 08:30N 37°43' E 024°17'14316.2
2017-Aug-12 23:43N 39°49' E 025°44'2416.0
2017-Aug-12 22:11N 40°02' E 026°11'121 4.5
2017-Aug-11 19:27N 40°27' E 028°47'613.9
2017-Aug-11 19:01N 40°32' E 028°42'1315.7
2017-Aug-11 18:09N 40°41' E 028°55'  
2017-Aug-09 04:54N 37°44' E 024°18'  

Dump ship's entire track history